sensor_id;sensor_type;location;lat;lon;timestamp;P1;durP1;ratioP1;P2;durP2;ratioP2
20069;SDS011;10195;50.868;4.382;2023-09-19T00:01:05;13.90;;;2.47;;
20069;SDS011;10195;50.868;4.382;2023-09-19T00:03:36;21.70;;;4.13;;
20069;SDS011;10195;50.868;4.382;2023-09-19T00:06:02;12.83;;;2.83;;
20069;SDS011;10195;50.868;4.382;2023-09-19T00:08:32;14.10;;;2.60;;
20069;SDS011;10195;50.868;4.382;2023-09-19T00:11:01;11.47;;;2.13;;
20069;SDS011;10195;50.868;4.382;2023-09-19T00:13:31;19.50;;;3.40;;
20069;SDS011;10195;50.868;4.382;2023-09-19T00:15:58;14.43;;;2.80;;
20069;SDS011;10195;50.868;4.382;2023-09-19T00:18:25;20.85;;;3.10;;
20069;SDS011;10195;50.868;4.382;2023-09-19T00:21:00;14.23;;;2.93;;
20069;SDS011;10195;50.868;4.382;2023-09-19T00:23:26;13.18;;;2.47;;
20069;SDS011;10195;50.868;4.382;2023-09-19T00:25:53;12.05;;;2.22;;
20069;SDS011;10195;50.868;4.382;2023-09-19T00:28:22;12.98;;;2.88;;
20069;SDS011;10195;50.868;4.382;2023-09-19T00:30:48;14.48;;;2.95;;
20069;SDS011;10195;50.868;4.382;2023-09-19T00:33:20;20.65;;;2.55;;
20069;SDS011;10195;50.868;4.382;2023-09-19T00:35:49;14.57;;;3.73;;
20069;SDS011;10195;50.868;4.382;2023-09-19T00:38:20;11.30;;;2.53;;
20069;SDS011;10195;50.868;4.382;2023-09-19T00:40:49;15.80;;;2.90;;
20069;SDS011;10195;50.868;4.382;2023-09-19T00:43:19;11.75;;;2.70;;
20069;SDS011;10195;50.868;4.382;2023-09-19T00:45:49;15.60;;;3.00;;
20069;SDS011;10195;50.868;4.382;2023-09-19T00:48:16;11.70;;;2.90;;
20069;SDS011;10195;50.868;4.382;2023-09-19T00:50:44;17.80;;;2.93;;
20069;SDS011;10195;50.868;4.382;2023-09-19T00:53:13;16.98;;;3.25;;
20069;SDS011;10195;50.868;4.382;2023-09-19T00:55:40;14.73;;;3.05;;
20069;SDS011;10195;50.868;4.382;2023-09-19T00:58:07;13.07;;;2.70;;
20069;SDS011;10195;50.868;4.382;2023-09-19T01:00:35;10.35;;;2.38;;
20069;SDS011;10195;50.868;4.382;2023-09-19T01:03:01;12.10;;;3.00;;
20069;SDS011;10195;50.868;4.382;2023-09-19T01:05:27;13.65;;;3.08;;
20069;SDS011;10195;50.868;4.382;2023-09-19T01:07:53;12.95;;;2.67;;
20069;SDS011;10195;50.868;4.382;2023-09-19T01:10:19;16.63;;;2.97;;
20069;SDS011;10195;50.868;4.382;2023-09-19T01:12:52;12.32;;;2.83;;
20069;SDS011;10195;50.868;4.382;2023-09-19T01:20:45;17.37;;;2.70;;
20069;SDS011;10195;50.868;4.382;2023-09-19T01:23:27;16.60;;;3.05;;
20069;SDS011;10195;50.868;4.382;2023-09-19T01:26:05;15.80;;;2.80;;
20069;SDS011;10195;50.868;4.382;2023-09-19T01:28:35;11.83;;;2.60;;
20069;SDS011;10195;50.868;4.382;2023-09-19T01:31:09;10.80;;;2.65;;
20069;SDS011;10195;50.868;4.382;2023-09-19T01:33:55;14.80;;;2.90;;
20069;SDS011;10195;50.868;4.382;2023-09-19T01:36:29;19.90;;;3.08;;
20069;SDS011;10195;50.868;4.382;2023-09-19T01:39:01;17.47;;;3.53;;
20069;SDS011;10195;50.868;4.382;2023-09-19T01:41:38;17.23;;;3.27;;
20069;SDS011;10195;50.868;4.382;2023-09-19T01:44:09;17.10;;;3.37;;
20069;SDS011;10195;50.868;4.382;2023-09-19T01:46:43;17.10;;;2.83;;
20069;SDS011;10195;50.868;4.382;2023-09-19T01:54:32;16.27;;;2.60;;
20069;SDS011;10195;50.868;4.382;2023-09-19T01:57:07;14.87;;;3.07;;
20069;SDS011;10195;50.868;4.382;2023-09-19T02:00:00;15.37;;;3.20;;
20069;SDS011;10195;50.868;4.382;2023-09-19T02:02:36;14.70;;;3.27;;
20069;SDS011;10195;50.868;4.382;2023-09-19T02:05:04;15.50;;;3.23;;
20069;SDS011;10195;50.868;4.382;2023-09-19T02:07:31;16.27;;;3.50;;
20069;SDS011;10195;50.868;4.382;2023-09-19T02:10:00;16.07;;;3.13;;
20069;SDS011;10195;50.868;4.382;2023-09-19T02:12:26;15.73;;;3.20;;
20069;SDS011;10195;50.868;4.382;2023-09-19T02:14:52;23.13;;;3.75;;
20069;SDS011;10195;50.868;4.382;2023-09-19T02:17:18;14.83;;;3.33;;
20069;SDS011;10195;50.868;4.382;2023-09-19T02:19:44;19.83;;;3.73;;
20069;SDS011;10195;50.868;4.382;2023-09-19T02:22:10;18.50;;;3.27;;
20069;SDS011;10195;50.868;4.382;2023-09-19T02:24:38;17.33;;;3.37;;
20069;SDS011;10195;50.868;4.382;2023-09-19T02:27:04;11.83;;;2.80;;
20069;SDS011;10195;50.868;4.382;2023-09-19T02:29:30;17.97;;;3.17;;
20069;SDS011;10195;50.868;4.382;2023-09-19T02:31:57;24.07;;;3.37;;
20069;SDS011;10195;50.868;4.382;2023-09-19T02:34:22;16.90;;;3.13;;
20069;SDS011;10195;50.868;4.382;2023-09-19T02:36:48;12.80;;;2.77;;
20069;SDS011;10195;50.868;4.382;2023-09-19T02:39:14;14.00;;;3.30;;
20069;SDS011;10195;50.868;4.382;2023-09-19T02:41:40;15.27;;;3.08;;
20069;SDS011;10195;50.868;4.382;2023-09-19T02:44:06;13.17;;;2.97;;
20069;SDS011;10195;50.868;4.382;2023-09-19T02:46:33;10.43;;;2.43;;
20069;SDS011;10195;50.868;4.382;2023-09-19T02:49:01;12.63;;;2.72;;
20069;SDS011;10195;50.868;4.382;2023-09-19T02:51:28;19.20;;;3.57;;
20069;SDS011;10195;50.868;4.382;2023-09-19T02:53:54;11.57;;;2.97;;
20069;SDS011;10195;50.868;4.382;2023-09-19T02:56:19;16.15;;;2.95;;
20069;SDS011;10195;50.868;4.382;2023-09-19T02:58:45;19.57;;;3.60;;
20069;SDS011;10195;50.868;4.382;2023-09-19T03:01:11;13.60;;;2.92;;
20069;SDS011;10195;50.868;4.382;2023-09-19T03:03:37;18.33;;;3.10;;
20069;SDS011;10195;50.868;4.382;2023-09-19T03:06:04;20.37;;;2.80;;
20069;SDS011;10195;50.868;4.382;2023-09-19T03:08:34;13.53;;;3.23;;
20069;SDS011;10195;50.868;4.382;2023-09-19T03:11:03;12.18;;;2.80;;
20069;SDS011;10195;50.868;4.382;2023-09-19T03:13:28;17.37;;;2.83;;
20069;SDS011;10195;50.868;4.382;2023-09-19T03:15:56;9.83;;;2.80;;
20069;SDS011;10195;50.868;4.382;2023-09-19T03:18:23;22.33;;;3.07;;
20069;SDS011;10195;50.868;4.382;2023-09-19T03:20:55;23.48;;;4.18;;
20069;SDS011;10195;50.868;4.382;2023-09-19T03:23:21;15.07;;;2.77;;
20069;SDS011;10195;50.868;4.382;2023-09-19T03:25:47;19.40;;;3.30;;
20069;SDS011;10195;50.868;4.382;2023-09-19T03:28:13;10.27;;;2.67;;
20069;SDS011;10195;50.868;4.382;2023-09-19T03:30:40;14.23;;;3.20;;
20069;SDS011;10195;50.868;4.382;2023-09-19T03:33:06;12.93;;;2.27;;
20069;SDS011;10195;50.868;4.382;2023-09-19T03:35:31;16.13;;;2.78;;
20069;SDS011;10195;50.868;4.382;2023-09-19T03:37:57;18.50;;;3.80;;
20069;SDS011;10195;50.868;4.382;2023-09-19T03:40:23;13.00;;;2.67;;
20069;SDS011;10195;50.868;4.382;2023-09-19T03:42:50;18.23;;;2.87;;
20069;SDS011;10195;50.868;4.382;2023-09-19T03:45:16;8.80;;;2.97;;
20069;SDS011;10195;50.868;4.382;2023-09-19T03:47:43;16.83;;;2.93;;
20069;SDS011;10195;50.868;4.382;2023-09-19T03:50:12;11.20;;;2.90;;
20069;SDS011;10195;50.868;4.382;2023-09-19T03:52:40;15.80;;;3.00;;
20069;SDS011;10195;50.868;4.382;2023-09-19T03:55:06;11.07;;;2.60;;
20069;SDS011;10195;50.868;4.382;2023-09-19T03:57:32;15.07;;;4.43;;
20069;SDS011;10195;50.868;4.382;2023-09-19T04:00:01;14.80;;;2.87;;
20069;SDS011;10195;50.868;4.382;2023-09-19T04:02:27;16.00;;;2.70;;
20069;SDS011;10195;50.868;4.382;2023-09-19T04:04:58;19.27;;;2.30;;
20069;SDS011;10195;50.868;4.382;2023-09-19T04:07:24;17.90;;;4.17;;
20069;SDS011;10195;50.868;4.382;2023-09-19T04:09:51;14.30;;;2.97;;
20069;SDS011;10195;50.868;4.382;2023-09-19T04:12:18;23.30;;;3.87;;
20069;SDS011;10195;50.868;4.382;2023-09-19T04:14:44;18.50;;;3.30;;
20069;SDS011;10195;50.868;4.382;2023-09-19T04:17:10;13.43;;;2.90;;
20069;SDS011;10195;50.868;4.382;2023-09-19T04:19:35;18.40;;;2.90;;
20069;SDS011;10195;50.868;4.382;2023-09-19T04:22:02;20.90;;;3.30;;
20069;SDS011;10195;50.868;4.382;2023-09-19T04:24:29;16.93;;;3.13;;
20069;SDS011;10195;50.868;4.382;2023-09-19T04:26:54;20.37;;;3.87;;
20069;SDS011;10195;50.868;4.382;2023-09-19T04:29:20;17.20;;;3.23;;
20069;SDS011;10195;50.868;4.382;2023-09-19T04:31:46;12.77;;;3.17;;
20069;SDS011;10195;50.868;4.382;2023-09-19T04:34:11;19.57;;;2.90;;
20069;SDS011;10195;50.868;4.382;2023-09-19T04:36:40;12.83;;;2.90;;
20069;SDS011;10195;50.868;4.382;2023-09-19T04:39:06;12.87;;;3.23;;
20069;SDS011;10195;50.868;4.382;2023-09-19T04:41:32;21.00;;;3.17;;
20069;SDS011;10195;50.868;4.382;2023-09-19T04:43:59;15.97;;;3.10;;
20069;SDS011;10195;50.868;4.382;2023-09-19T04:46:25;14.77;;;3.50;;
20069;SDS011;10195;50.868;4.382;2023-09-19T04:48:50;15.48;;;3.03;;
20069;SDS011;10195;50.868;4.382;2023-09-19T04:51:16;14.20;;;3.20;;
20069;SDS011;10195;50.868;4.382;2023-09-19T04:53:43;13.20;;;2.93;;
20069;SDS011;10195;50.868;4.382;2023-09-19T04:56:09;19.37;;;3.70;;
20069;SDS011;10195;50.868;4.382;2023-09-19T04:58:35;17.73;;;3.50;;
20069;SDS011;10195;50.868;4.382;2023-09-19T05:01:00;17.37;;;3.10;;
20069;SDS011;10195;50.868;4.382;2023-09-19T05:03:27;12.67;;;2.30;;
20069;SDS011;10195;50.868;4.382;2023-09-19T05:05:52;12.43;;;3.13;;
20069;SDS011;10195;50.868;4.382;2023-09-19T05:08:18;15.73;;;3.23;;
20069;SDS011;10195;50.868;4.382;2023-09-19T05:10:44;15.47;;;2.87;;
20069;SDS011;10195;50.868;4.382;2023-09-19T05:13:10;11.67;;;3.10;;
20069;SDS011;10195;50.868;4.382;2023-09-19T05:15:37;27.67;;;3.50;;
20069;SDS011;10195;50.868;4.382;2023-09-19T05:18:02;25.63;;;3.77;;
20069;SDS011;10195;50.868;4.382;2023-09-19T05:20:28;16.23;;;3.20;;
20069;SDS011;10195;50.868;4.382;2023-09-19T05:25:26;17.50;;;3.23;;
20069;SDS011;10195;50.868;4.382;2023-09-19T05:27:54;20.30;;;2.73;;
20069;SDS011;10195;50.868;4.382;2023-09-19T05:30:25;19.70;;;3.23;;
20069;SDS011;10195;50.868;4.382;2023-09-19T05:32:54;16.37;;;2.83;;
20069;SDS011;10195;50.868;4.382;2023-09-19T05:35:21;22.90;;;3.50;;
20069;SDS011;10195;50.868;4.382;2023-09-19T05:37:47;17.63;;;3.13;;
20069;SDS011;10195;50.868;4.382;2023-09-19T05:40:16;12.73;;;3.47;;
20069;SDS011;10195;50.868;4.382;2023-09-19T05:42:42;14.27;;;3.13;;
20069;SDS011;10195;50.868;4.382;2023-09-19T05:45:09;12.57;;;3.80;;
20069;SDS011;10195;50.868;4.382;2023-09-19T05:47:41;27.13;;;3.57;;
20069;SDS011;10195;50.868;4.382;2023-09-19T05:50:08;22.40;;;3.50;;
20069;SDS011;10195;50.868;4.382;2023-09-19T05:52:38;21.77;;;3.60;;
20069;SDS011;10195;50.868;4.382;2023-09-19T05:55:04;15.60;;;2.80;;
20069;SDS011;10195;50.868;4.382;2023-09-19T05:57:31;19.07;;;3.60;;
20069;SDS011;10195;50.868;4.382;2023-09-19T05:59:57;18.33;;;4.17;;
20069;SDS011;10195;50.868;4.382;2023-09-19T06:02:23;19.20;;;3.15;;
20069;SDS011;10195;50.868;4.382;2023-09-19T06:04:52;17.13;;;3.30;;
20069;SDS011;10195;50.868;4.382;2023-09-19T06:07:18;18.70;;;3.00;;
20069;SDS011;10195;50.868;4.382;2023-09-19T06:09:43;12.23;;;2.63;;
20069;SDS011;10195;50.868;4.382;2023-09-19T06:12:09;11.40;;;3.33;;
20069;SDS011;10195;50.868;4.382;2023-09-19T06:14:37;15.83;;;2.57;;
20069;SDS011;10195;50.868;4.382;2023-09-19T06:17:05;10.57;;;2.83;;
20069;SDS011;10195;50.868;4.382;2023-09-19T06:19:31;15.15;;;2.85;;
20069;SDS011;10195;50.868;4.382;2023-09-19T06:21:57;20.65;;;4.05;;
20069;SDS011;10195;50.868;4.382;2023-09-19T06:24:24;16.97;;;2.87;;
20069;SDS011;10195;50.868;4.382;2023-09-19T06:26:50;16.48;;;3.35;;
20069;SDS011;10195;50.868;4.382;2023-09-19T06:29:18;17.63;;;2.33;;
20069;SDS011;10195;50.868;4.382;2023-09-19T06:31:45;9.90;;;2.57;;
20069;SDS011;10195;50.868;4.382;2023-09-19T06:34:12;13.27;;;2.92;;
20069;SDS011;10195;50.868;4.382;2023-09-19T06:36:40;15.57;;;3.35;;
20069;SDS011;10195;50.868;4.382;2023-09-19T06:39:06;14.30;;;3.10;;
20069;SDS011;10195;50.868;4.382;2023-09-19T06:41:35;15.63;;;3.50;;
20069;SDS011;10195;50.868;4.382;2023-09-19T06:44:03;16.37;;;2.70;;
20069;SDS011;10195;50.868;4.382;2023-09-19T06:46:30;15.40;;;3.00;;
20069;SDS011;10195;50.868;4.382;2023-09-19T06:48:59;18.73;;;3.13;;
20069;SDS011;10195;50.868;4.382;2023-09-19T06:51:28;12.97;;;2.70;;
20069;SDS011;10195;50.868;4.382;2023-09-19T06:53:54;15.98;;;2.72;;
20069;SDS011;10195;50.868;4.382;2023-09-19T06:56:21;13.25;;;2.95;;
20069;SDS011;10195;50.868;4.382;2023-09-19T06:58:49;18.42;;;2.67;;
20069;SDS011;10195;50.868;4.382;2023-09-19T07:01:15;15.10;;;3.00;;
20069;SDS011;10195;50.868;4.382;2023-09-19T07:03:41;17.70;;;3.33;;
20069;SDS011;10195;50.868;4.382;2023-09-19T07:06:06;19.17;;;2.70;;
20069;SDS011;10195;50.868;4.382;2023-09-19T07:08:33;10.43;;;2.55;;
20069;SDS011;10195;50.868;4.382;2023-09-19T07:10:59;12.68;;;2.30;;
20069;SDS011;10195;50.868;4.382;2023-09-19T07:13:26;22.05;;;3.25;;
20069;SDS011;10195;50.868;4.382;2023-09-19T07:15:51;12.68;;;2.72;;
20069;SDS011;10195;50.868;4.382;2023-09-19T07:18:17;15.80;;;2.63;;
20069;SDS011;10195;50.868;4.382;2023-09-19T07:20:43;17.50;;;3.15;;
20069;SDS011;10195;50.868;4.382;2023-09-19T07:23:19;20.65;;;3.00;;
20069;SDS011;10195;50.868;4.382;2023-09-19T07:25:47;12.52;;;2.67;;
20069;SDS011;10195;50.868;4.382;2023-09-19T07:28:14;11.68;;;2.95;;
20069;SDS011;10195;50.868;4.382;2023-09-19T07:30:40;13.65;;;2.70;;
20069;SDS011;10195;50.868;4.382;2023-09-19T07:33:09;11.85;;;2.60;;
20069;SDS011;10195;50.868;4.382;2023-09-19T07:35:37;13.07;;;3.97;;
20069;SDS011;10195;50.868;4.382;2023-09-19T07:38:05;14.10;;;2.97;;
20069;SDS011;10195;50.868;4.382;2023-09-19T07:40:31;16.48;;;2.65;;
20069;SDS011;10195;50.868;4.382;2023-09-19T07:42:57;14.27;;;3.15;;
20069;SDS011;10195;50.868;4.382;2023-09-19T07:45:26;12.05;;;2.47;;
20069;SDS011;10195;50.868;4.382;2023-09-19T07:47:55;14.75;;;2.88;;
20069;SDS011;10195;50.868;4.382;2023-09-19T07:50:21;19.23;;;4.03;;
20069;SDS011;10195;50.868;4.382;2023-09-19T07:52:47;15.60;;;3.97;;
20069;SDS011;10195;50.868;4.382;2023-09-19T07:55:16;15.35;;;2.67;;
20069;SDS011;10195;50.868;4.382;2023-09-19T07:57:42;10.10;;;2.38;;
20069;SDS011;10195;50.868;4.382;2023-09-19T08:00:08;14.32;;;3.15;;
20069;SDS011;10195;50.868;4.382;2023-09-19T08:02:38;13.35;;;3.15;;
20069;SDS011;10195;50.868;4.382;2023-09-19T08:05:05;15.43;;;2.67;;
20069;SDS011;10195;50.868;4.382;2023-09-19T08:07:34;9.90;;;2.83;;
20069;SDS011;10195;50.868;4.382;2023-09-19T08:10:04;12.00;;;2.55;;
20069;SDS011;10195;50.868;4.382;2023-09-19T08:12:36;18.92;;;3.05;;
20069;SDS011;10195;50.868;4.382;2023-09-19T08:15:02;12.00;;;3.35;;
20069;SDS011;10195;50.868;4.382;2023-09-19T08:17:28;12.32;;;3.00;;
20069;SDS011;10195;50.868;4.382;2023-09-19T08:19:54;13.15;;;3.17;;
20069;SDS011;10195;50.868;4.382;2023-09-19T08:22:20;13.75;;;2.28;;
20069;SDS011;10195;50.868;4.382;2023-09-19T08:24:48;11.73;;;2.88;;
20069;SDS011;10195;50.868;4.382;2023-09-19T08:27:14;14.20;;;2.88;;
20069;SDS011;10195;50.868;4.382;2023-09-19T08:29:40;10.77;;;2.22;;
20069;SDS011;10195;50.868;4.382;2023-09-19T08:32:07;16.23;;;2.72;;
20069;SDS011;10195;50.868;4.382;2023-09-19T08:34:33;14.52;;;2.70;;
20069;SDS011;10195;50.868;4.382;2023-09-19T08:36:59;10.65;;;3.05;;
20069;SDS011;10195;50.868;4.382;2023-09-19T08:39:25;12.88;;;2.95;;
20069;SDS011;10195;50.868;4.382;2023-09-19T08:42:00;13.60;;;3.00;;
20069;SDS011;10195;50.868;4.382;2023-09-19T08:44:27;11.30;;;2.80;;
20069;SDS011;10195;50.868;4.382;2023-09-19T08:46:55;17.70;;;2.58;;
20069;SDS011;10195;50.868;4.382;2023-09-19T08:52:42;12.63;;;2.53;;
20069;SDS011;10195;50.868;4.382;2023-09-19T08:55:11;7.70;;;2.40;;
20069;SDS011;10195;50.868;4.382;2023-09-19T08:57:38;9.90;;;2.15;;
20069;SDS011;10195;50.868;4.382;2023-09-19T09:00:07;17.30;;;3.15;;
20069;SDS011;10195;50.868;4.382;2023-09-19T09:02:38;17.35;;;2.85;;
20069;SDS011;10195;50.868;4.382;2023-09-19T09:05:10;13.95;;;2.67;;
20069;SDS011;10195;50.868;4.382;2023-09-19T09:07:42;15.30;;;2.53;;
20069;SDS011;10195;50.868;4.382;2023-09-19T09:10:09;7.57;;;1.90;;
20069;SDS011;10195;50.868;4.382;2023-09-19T09:12:35;14.23;;;2.20;;
20069;SDS011;10195;50.868;4.382;2023-09-19T09:15:04;13.98;;;2.83;;
20069;SDS011;10195;50.868;4.382;2023-09-19T09:17:30;16.77;;;3.15;;
20069;SDS011;10195;50.868;4.382;2023-09-19T09:19:56;16.15;;;2.67;;
20069;SDS011;10195;50.868;4.382;2023-09-19T09:22:22;16.85;;;3.13;;
20069;SDS011;10195;50.868;4.382;2023-09-19T09:24:55;11.88;;;2.42;;
20069;SDS011;10195;50.868;4.382;2023-09-19T09:27:31;13.68;;;2.10;;
20069;SDS011;10195;50.868;4.382;2023-09-19T09:29:59;11.93;;;2.30;;
20069;SDS011;10195;50.868;4.382;2023-09-19T09:32:29;11.95;;;2.95;;
20069;SDS011;10195;50.868;4.382;2023-09-19T09:34:59;10.27;;;1.90;;
20069;SDS011;10195;50.868;4.382;2023-09-19T09:37:26;7.00;;;2.00;;
20069;SDS011;10195;50.868;4.382;2023-09-19T09:40:00;10.30;;;2.63;;
20069;SDS011;10195;50.868;4.382;2023-09-19T09:42:42;11.00;;;2.28;;
20069;SDS011;10195;50.868;4.382;2023-09-19T09:47:58;10.57;;;2.47;;
20069;SDS011;10195;50.868;4.382;2023-09-19T09:50:35;9.52;;;2.22;;
20069;SDS011;10195;50.868;4.382;2023-09-19T09:53:34;12.82;;;2.45;;
20069;SDS011;10195;50.868;4.382;2023-09-19T09:56:03;9.10;;;1.70;;
20069;SDS011;10195;50.868;4.382;2023-09-19T09:58:35;10.70;;;2.20;;
20069;SDS011;10195;50.868;4.382;2023-09-19T10:01:03;12.95;;;2.35;;
20069;SDS011;10195;50.868;4.382;2023-09-19T10:03:39;10.43;;;2.58;;
20069;SDS011;10195;50.868;4.382;2023-09-19T10:06:11;7.38;;;2.15;;
20069;SDS011;10195;50.868;4.382;2023-09-19T10:11:38;7.72;;;1.65;;
20069;SDS011;10195;50.868;4.382;2023-09-19T10:14:09;9.93;;;2.25;;
20069;SDS011;10195;50.868;4.382;2023-09-19T10:16:40;9.90;;;1.73;;
20069;SDS011;10195;50.868;4.382;2023-09-19T10:19:10;8.48;;;2.05;;
20069;SDS011;10195;50.868;4.382;2023-09-19T10:21:39;13.02;;;2.38;;
20069;SDS011;10195;50.868;4.382;2023-09-19T10:24:05;6.57;;;1.48;;
20069;SDS011;10195;50.868;4.382;2023-09-19T10:26:34;15.80;;;2.20;;
20069;SDS011;10195;50.868;4.382;2023-09-19T10:29:01;11.60;;;2.20;;
20069;SDS011;10195;50.868;4.382;2023-09-19T10:31:28;11.07;;;2.40;;
20069;SDS011;10195;50.868;4.382;2023-09-19T10:33:59;8.65;;;2.45;;
20069;SDS011;10195;50.868;4.382;2023-09-19T10:36:29;10.45;;;2.60;;
20069;SDS011;10195;50.868;4.382;2023-09-19T10:39:01;8.50;;;1.90;;
20069;SDS011;10195;50.868;4.382;2023-09-19T10:41:30;10.30;;;2.00;;
20069;SDS011;10195;50.868;4.382;2023-09-19T10:44:01;3.50;;;1.70;;
20069;SDS011;10195;50.868;4.382;2023-09-19T10:46:34;11.98;;;2.00;;
20069;SDS011;10195;50.868;4.382;2023-09-19T10:49:00;10.10;;;1.90;;
20069;SDS011;10195;50.868;4.382;2023-09-19T10:51:31;5.20;;;1.45;;
20069;SDS011;10195;50.868;4.382;2023-09-19T10:54:07;6.60;;;1.73;;
20069;SDS011;10195;50.868;4.382;2023-09-19T10:56:38;10.07;;;2.00;;
20069;SDS011;10195;50.868;4.382;2023-09-19T10:59:10;11.27;;;1.65;;
20069;SDS011;10195;50.868;4.382;2023-09-19T11:01:54;11.10;;;1.90;;
20069;SDS011;10195;50.868;4.382;2023-09-19T11:24:27;8.90;;;1.60;;
20069;SDS011;10195;50.868;4.382;2023-09-19T11:27:09;9.27;;;1.83;;
20069;SDS011;10195;50.868;4.382;2023-09-19T11:29:38;7.10;;;1.40;;
20069;SDS011;10195;50.868;4.382;2023-09-19T11:32:05;3.67;;;1.45;;
20069;SDS011;10195;50.868;4.382;2023-09-19T11:39:40;6.72;;;1.40;;
20069;SDS011;10195;50.868;4.382;2023-09-19T11:42:44;7.80;;;1.77;;
20069;SDS011;10195;50.868;4.382;2023-09-19T11:48:12;7.55;;;1.70;;
20069;SDS011;10195;50.868;4.382;2023-09-19T11:50:43;5.72;;;1.48;;
20069;SDS011;10195;50.868;4.382;2023-09-19T11:53:11;11.77;;;2.10;;
20069;SDS011;10195;50.868;4.382;2023-09-19T11:55:40;11.65;;;1.65;;
20069;SDS011;10195;50.868;4.382;2023-09-19T11:58:09;6.70;;;1.80;;
20069;SDS011;10195;50.868;4.382;2023-09-19T12:00:39;8.40;;;1.77;;
20069;SDS011;10195;50.868;4.382;2023-09-19T12:03:09;7.00;;;2.00;;
20069;SDS011;10195;50.868;4.382;2023-09-19T12:05:36;8.65;;;1.80;;
20069;SDS011;10195;50.868;4.382;2023-09-19T12:08:03;10.30;;;1.85;;
20069;SDS011;10195;50.868;4.382;2023-09-19T12:10:32;7.22;;;1.60;;
20069;SDS011;10195;50.868;4.382;2023-09-19T12:12:58;8.82;;;1.70;;
20069;SDS011;10195;50.868;4.382;2023-09-19T12:15:25;5.88;;;1.48;;
20069;SDS011;10195;50.868;4.382;2023-09-19T12:17:59;9.25;;;1.95;;
20069;SDS011;10195;50.868;4.382;2023-09-19T12:20:25;8.50;;;1.70;;
20069;SDS011;10195;50.868;4.382;2023-09-19T12:22:50;4.10;;;1.45;;
20069;SDS011;10195;50.868;4.382;2023-09-19T12:25:16;7.53;;;2.17;;
20069;SDS011;10195;50.868;4.382;2023-09-19T12:27:43;8.02;;;1.95;;
20069;SDS011;10195;50.868;4.382;2023-09-19T12:30:14;6.35;;;1.75;;
20069;SDS011;10195;50.868;4.382;2023-09-19T12:32:42;5.00;;;1.40;;
20069;SDS011;10195;50.868;4.382;2023-09-19T12:35:09;5.25;;;1.45;;
20069;SDS011;10195;50.868;4.382;2023-09-19T12:37:43;5.90;;;1.40;;
20069;SDS011;10195;50.868;4.382;2023-09-19T12:40:17;4.38;;;1.13;;
20069;SDS011;10195;50.868;4.382;2023-09-19T12:42:50;5.28;;;1.42;;
20069;SDS011;10195;50.868;4.382;2023-09-19T12:45:20;6.75;;;1.73;;
20069;SDS011;10195;50.868;4.382;2023-09-19T12:51:04;2.95;;;1.50;;
20069;SDS011;10195;50.868;4.382;2023-09-19T12:53:34;7.97;;;1.42;;
20069;SDS011;10195;50.868;4.382;2023-09-19T12:56:14;5.85;;;1.33;;
20069;SDS011;10195;50.868;4.382;2023-09-19T12:58:53;9.80;;;1.58;;
20069;SDS011;10195;50.868;4.382;2023-09-19T13:01:21;12.25;;;2.10;;
20069;SDS011;10195;50.868;4.382;2023-09-19T13:06:45;8.20;;;1.90;;
20069;SDS011;10195;50.868;4.382;2023-09-19T13:09:14;6.07;;;1.50;;
20069;SDS011;10195;50.868;4.382;2023-09-19T13:11:41;10.95;;;1.77;;
20069;SDS011;10195;50.868;4.382;2023-09-19T13:14:25;6.38;;;1.40;;
20069;SDS011;10195;50.868;4.382;2023-09-19T13:17:06;7.47;;;1.67;;
20069;SDS011;10195;50.868;4.382;2023-09-19T13:25:19;6.68;;;1.55;;
20069;SDS011;10195;50.868;4.382;2023-09-19T13:27:46;7.88;;;1.92;;
20069;SDS011;10195;50.868;4.382;2023-09-19T13:30:19;5.68;;;1.27;;
20069;SDS011;10195;50.868;4.382;2023-09-19T13:32:45;6.97;;;1.42;;
20069;SDS011;10195;50.868;4.382;2023-09-19T13:35:12;5.50;;;1.35;;
20069;SDS011;10195;50.868;4.382;2023-09-19T13:37:40;8.75;;;1.58;;
20069;SDS011;10195;50.868;4.382;2023-09-19T13:40:08;5.95;;;1.50;;
20069;SDS011;10195;50.868;4.382;2023-09-19T13:42:34;6.28;;;1.65;;
20069;SDS011;10195;50.868;4.382;2023-09-19T13:45:04;13.23;;;2.08;;
20069;SDS011;10195;50.868;4.382;2023-09-19T13:47:31;5.55;;;1.77;;
20069;SDS011;10195;50.868;4.382;2023-09-19T13:49:58;4.60;;;1.70;;
20069;SDS011;10195;50.868;4.382;2023-09-19T13:52:25;3.88;;;1.48;;
20069;SDS011;10195;50.868;4.382;2023-09-19T13:54:53;5.28;;;1.63;;
20069;SDS011;10195;50.868;4.382;2023-09-19T13:57:21;7.55;;;2.13;;
20069;SDS011;10195;50.868;4.382;2023-09-19T13:59:47;5.88;;;1.85;;
20069;SDS011;10195;50.868;4.382;2023-09-19T14:02:13;13.23;;;3.13;;
20069;SDS011;10195;50.868;4.382;2023-09-19T14:04:39;5.35;;;1.70;;
20069;SDS011;10195;50.868;4.382;2023-09-19T14:07:05;9.70;;;2.13;;
20069;SDS011;10195;50.868;4.382;2023-09-19T14:09:32;5.45;;;1.80;;
20069;SDS011;10195;50.868;4.382;2023-09-19T14:11:58;8.00;;;1.63;;
20069;SDS011;10195;50.868;4.382;2023-09-19T14:14:24;12.15;;;1.90;;
20069;SDS011;10195;50.868;4.382;2023-09-19T14:16:50;10.93;;;2.20;;
20069;SDS011;10195;50.868;4.382;2023-09-19T14:19:17;4.68;;;1.67;;
20069;SDS011;10195;50.868;4.382;2023-09-19T14:21:43;8.50;;;1.80;;
20069;SDS011;10195;50.868;4.382;2023-09-19T14:24:09;7.22;;;1.38;;
20069;SDS011;10195;50.868;4.382;2023-09-19T14:26:35;9.10;;;1.70;;
20069;SDS011;10195;50.868;4.382;2023-09-19T14:29:01;6.07;;;1.90;;
20069;SDS011;10195;50.868;4.382;2023-09-19T14:31:27;5.72;;;2.05;;
20069;SDS011;10195;50.868;4.382;2023-09-19T14:33:54;4.78;;;1.52;;
20069;SDS011;10195;50.868;4.382;2023-09-19T14:36:24;7.10;;;1.90;;
20069;SDS011;10195;50.868;4.382;2023-09-19T14:38:55;4.88;;;1.60;;
20069;SDS011;10195;50.868;4.382;2023-09-19T14:41:24;8.45;;;2.10;;
20069;SDS011;10195;50.868;4.382;2023-09-19T14:43:54;5.85;;;1.40;;
20069;SDS011;10195;50.868;4.382;2023-09-19T14:46:20;6.20;;;1.90;;
20069;SDS011;10195;50.868;4.382;2023-09-19T14:48:46;6.75;;;1.58;;
20069;SDS011;10195;50.868;4.382;2023-09-19T14:51:12;5.57;;;1.60;;
20069;SDS011;10195;50.868;4.382;2023-09-19T14:53:39;13.27;;;2.08;;
20069;SDS011;10195;50.868;4.382;2023-09-19T14:56:07;3.80;;;1.77;;
20069;SDS011;10195;50.868;4.382;2023-09-19T14:58:34;6.88;;;1.90;;
20069;SDS011;10195;50.868;4.382;2023-09-19T15:01:10;13.32;;;2.10;;
20069;SDS011;10195;50.868;4.382;2023-09-19T15:03:37;4.63;;;2.03;;
20069;SDS011;10195;50.868;4.382;2023-09-19T15:06:14;8.98;;;2.30;;
20069;SDS011;10195;50.868;4.382;2023-09-19T15:08:42;7.65;;;1.73;;
20069;SDS011;10195;50.868;4.382;2023-09-19T15:11:19;9.63;;;2.10;;
20069;SDS011;10195;50.868;4.382;2023-09-19T15:13:46;7.05;;;1.75;;
20069;SDS011;10195;50.868;4.382;2023-09-19T15:16:13;6.40;;;2.15;;
20069;SDS011;10195;50.868;4.382;2023-09-19T15:18:43;8.85;;;2.13;;
20069;SDS011;10195;50.868;4.382;2023-09-19T15:21:12;12.30;;;2.20;;
20069;SDS011;10195;50.868;4.382;2023-09-19T15:23:39;5.70;;;1.77;;
20069;SDS011;10195;50.868;4.382;2023-09-19T15:26:07;10.15;;;2.63;;
20069;SDS011;10195;50.868;4.382;2023-09-19T15:28:35;9.55;;;1.92;;
20069;SDS011;10195;50.868;4.382;2023-09-19T15:31:02;7.47;;;2.08;;
20069;SDS011;10195;50.868;4.382;2023-09-19T15:33:32;7.28;;;2.17;;
20069;SDS011;10195;50.868;4.382;2023-09-19T15:36:05;5.85;;;1.85;;
20069;SDS011;10195;50.868;4.382;2023-09-19T15:38:31;4.25;;;1.63;;
20069;SDS011;10195;50.868;4.382;2023-09-19T15:41:18;8.52;;;1.67;;
20069;SDS011;10195;50.868;4.382;2023-09-19T15:43:45;10.35;;;2.38;;
20069;SDS011;10195;50.868;4.382;2023-09-19T15:46:11;5.95;;;2.03;;
20069;SDS011;10195;50.868;4.382;2023-09-19T15:48:38;6.35;;;1.70;;